createdAt,value
2022-11-25T00:18:21.471Z,100697.98
2022-11-25T00:48:24.843Z,100733.15
2022-11-25T01:18:28.454Z,100747.46
2022-11-25T01:48:31.748Z,100723.17
2022-11-25T02:18:35.346Z,100744.45
2022-11-25T02:49:07.538Z,100755.80
2022-11-25T03:19:02.907Z,100752.22
2022-11-25T03:49:05.827Z,100754.58
2022-11-25T04:19:10.250Z,100794.91
2022-11-25T04:49:13.343Z,100777.95
2022-11-25T05:19:17.853Z,100788.92
2022-11-25T05:49:20.952Z,100790.39
2022-11-25T06:19:25.241Z,100812.92
2022-11-25T06:49:28.089Z,100848.30
2022-11-25T07:19:32.080Z,100872.29
2022-11-25T07:49:35.445Z,100870.55
2022-11-25T08:19:40.139Z,100880.38
2022-11-25T08:49:43.648Z,100903.20
2022-11-25T09:19:47.461Z,100907.02
2022-11-25T09:49:50.461Z,100907.18
2022-11-25T10:19:53.998Z,100912.56
2022-11-25T10:49:57.217Z,100914.04
2022-11-25T11:20:00.873Z,100925.56
2022-11-25T11:50:04.589Z,100916.30
2022-11-25T12:20:08.119Z,100910.34
2022-11-25T12:50:11.569Z,100906.11
2022-11-25T13:20:14.713Z,100930.30
2022-11-25T13:50:22.056Z,100929.39
2022-11-25T14:20:26.272Z,100954.45
2022-11-25T14:50:37.497Z,100972.62
2022-11-25T15:20:41.154Z,100982.09
2022-11-25T15:50:44.379Z,101007.10
2022-11-25T16:20:47.793Z,101015.69
2022-11-25T16:50:51.234Z,101019.13
2022-11-25T17:20:54.643Z,101034.53
2022-11-25T17:50:59.501Z,101045.63
2022-11-25T18:21:04.711Z,101072.28
2022-11-25T18:51:07.600Z,101081.77
2022-11-25T19:21:12.551Z,101105.95
2022-11-25T19:51:15.722Z,101128.20
2022-11-25T20:21:19.539Z,101155.81
2022-11-25T20:51:23.154Z,101182.50
2022-11-25T21:21:26.921Z,101170.48
2022-11-25T21:51:29.836Z,101199.08
2022-11-25T22:21:34.259Z,101230.05
2022-11-25T22:51:37.201Z,101238.69
2022-11-25T23:21:41.178Z,101246.47
2022-11-25T23:51:45.897Z,101270.05
